createdAt,value
2023-03-06T00:02:10.125Z,13.40
2023-03-06T00:05:26.887Z,12.97
2023-03-06T00:08:42.029Z,14.07
2023-03-06T00:11:59.694Z,12.13
2023-03-06T00:15:18.741Z,13.98
2023-03-06T00:18:36.887Z,15.02
2023-03-06T00:21:56.250Z,13.90
2023-03-06T00:25:15.148Z,12.35
2023-03-06T00:28:17.926Z,14.18
2023-03-06T00:31:19.976Z,13.73
2023-03-06T00:34:22.073Z,15.10
2023-03-06T00:37:25.322Z,14.97
2023-03-06T00:40:27.749Z,16.90
2023-03-06T00:43:29.910Z,13.13
2023-03-06T00:46:32.198Z,12.15
2023-03-06T00:49:34.891Z,15.15
2023-03-06T00:52:37.677Z,14.80
2023-03-06T00:55:39.820Z,13.45
2023-03-06T00:58:41.890Z,12.63
2023-03-06T01:01:43.996Z,13.27
2023-03-06T01:04:46.276Z,15.75
2023-03-06T01:07:48.462Z,14.03
2023-03-06T01:10:50.531Z,13.30
2023-03-06T01:13:52.631Z,15.88
2023-03-06T01:16:54.897Z,15.98
2023-03-06T01:19:58.073Z,13.32
2023-03-06T01:23:00.133Z,14.87
2023-03-06T01:26:02.294Z,13.75
2023-03-06T01:29:04.364Z,12.50
2023-03-06T01:32:06.680Z,13.68
2023-03-06T01:35:09.485Z,14.80
2023-03-06T01:38:11.552Z,15.90
2023-03-06T01:41:15.937Z,14.70
2023-03-06T01:44:18.126Z,15.95
2023-03-06T01:47:20.097Z,12.35
2023-03-06T01:50:22.264Z,13.95
2023-03-06T01:53:24.574Z,13.47
2023-03-06T01:56:26.899Z,16.05
2023-03-06T01:59:30.252Z,14.07
2023-03-06T02:02:33.027Z,16.37
2023-03-06T02:05:35.975Z,17.98
2023-03-06T02:08:38.803Z,14.73
2023-03-06T02:11:44.169Z,16.08
2023-03-06T02:14:47.649Z,12.77
2023-03-06T02:17:51.576Z,14.35
2023-03-06T02:20:56.149Z,14.52
2023-03-06T02:23:58.082Z,15.00
2023-03-06T02:27:02.938Z,14.43
2023-03-06T02:30:10.238Z,15.75
2023-03-06T02:33:15.361Z,14.15
2023-03-06T02:36:17.525Z,12.75
2023-03-06T02:39:23.992Z,13.67
2023-03-06T02:42:29.053Z,13.45
2023-03-06T02:45:39.567Z,17.37
2023-03-06T02:48:41.808Z,15.13
2023-03-06T02:51:44.708Z,12.85
2023-03-06T02:54:46.805Z,16.20
2023-03-06T02:57:49.057Z,14.90
2023-03-06T03:00:51.363Z,12.98
2023-03-06T03:03:53.424Z,14.07
2023-03-06T03:06:55.488Z,13.75
2023-03-06T03:09:57.676Z,14.93
2023-03-06T03:12:59.931Z,14.40
2023-03-06T03:16:07.773Z,16.08
2023-03-06T03:19:10.069Z,15.27
2023-03-06T03:22:12.255Z,14.30
2023-03-06T03:25:14.642Z,15.93
2023-03-06T03:28:16.800Z,15.77
2023-03-06T03:31:19.011Z,15.18
2023-03-06T03:34:21.120Z,13.45
2023-03-06T03:37:23.362Z,18.27
2023-03-06T03:40:25.527Z,21.33
2023-03-06T03:43:27.629Z,13.80
2023-03-06T03:46:29.693Z,13.25
2023-03-06T03:49:32.140Z,19.55
2023-03-06T03:52:34.284Z,17.92
2023-03-06T03:55:36.794Z,18.00
2023-03-06T03:58:39.659Z,17.30
2023-03-06T04:01:41.771Z,19.27
2023-03-06T04:04:43.869Z,16.33
2023-03-06T04:07:45.965Z,16.17
2023-03-06T04:10:48.093Z,18.10
2023-03-06T04:13:50.188Z,15.95
2023-03-06T04:16:52.229Z,16.83
2023-03-06T04:19:54.380Z,20.45
2023-03-06T04:22:56.434Z,18.10
2023-03-06T04:25:58.578Z,18.63
2023-03-06T04:29:00.942Z,15.60
2023-03-06T04:32:03.369Z,15.35
2023-03-06T04:35:05.976Z,14.13
2023-03-06T04:38:08.020Z,12.68
2023-03-06T04:41:10.039Z,16.43
2023-03-06T04:44:11.996Z,15.27
2023-03-06T04:47:14.012Z,14.60
2023-03-06T04:50:17.620Z,13.15
2023-03-06T04:53:21.454Z,15.90
2023-03-06T04:56:23.447Z,14.87
2023-03-06T04:59:25.838Z,13.38
2023-03-06T05:02:28.210Z,14.07
2023-03-06T05:05:30.345Z,14.77
2023-03-06T05:08:32.499Z,18.60
2023-03-06T05:11:34.816Z,11.87
2023-03-06T05:14:36.902Z,13.10
2023-03-06T05:17:39.536Z,13.23
2023-03-06T05:20:41.619Z,14.10
2023-03-06T05:23:43.707Z,13.55
2023-03-06T05:26:45.710Z,17.27
2023-03-06T05:29:47.743Z,13.95
2023-03-06T05:32:50.663Z,14.38
2023-03-06T05:35:52.976Z,13.13
2023-03-06T05:38:55.414Z,17.62
2023-03-06T05:41:57.508Z,15.83
2023-03-06T05:44:59.538Z,18.75
2023-03-06T05:48:01.785Z,17.02
2023-03-06T05:51:05.058Z,16.45
2023-03-06T05:54:07.080Z,16.77
2023-03-06T05:57:09.320Z,18.60
2023-03-06T06:00:13.143Z,21.10
2023-03-06T06:03:15.352Z,18.42
2023-03-06T06:06:18.071Z,18.37
2023-03-06T06:09:22.155Z,17.23
2023-03-06T06:12:24.456Z,18.47
2023-03-06T06:15:28.934Z,13.55
2023-03-06T06:18:30.959Z,19.42
2023-03-06T06:21:33.027Z,16.67
2023-03-06T06:24:35.398Z,17.90
2023-03-06T06:27:37.366Z,17.47
2023-03-06T06:30:39.499Z,23.25
2023-03-06T06:33:41.881Z,20.55
2023-03-06T06:36:44.198Z,19.98
2023-03-06T06:39:46.698Z,19.35
2023-03-06T06:42:48.832Z,22.50
2023-03-06T06:45:51.158Z,18.55
2023-03-06T06:48:56.367Z,17.73
2023-03-06T06:51:58.888Z,19.08
2023-03-06T06:55:00.834Z,22.75
2023-03-06T06:58:02.828Z,19.73
2023-03-06T07:01:06.971Z,18.55
2023-03-06T07:04:12.519Z,18.77
2023-03-06T07:07:14.623Z,19.58
2023-03-06T07:10:18.898Z,18.42
2023-03-06T07:13:22.118Z,19.33
2023-03-06T07:16:24.162Z,17.50
2023-03-06T07:19:26.417Z,20.02
2023-03-06T07:22:32.001Z,20.23
2023-03-06T07:25:38.044Z,24.83
2023-03-06T07:28:51.886Z,14.73
2023-03-06T07:31:55.152Z,21.15
2023-03-06T07:35:17.151Z,17.02
2023-03-06T07:38:19.971Z,19.00
2023-03-06T07:41:22.802Z,19.40
2023-03-06T07:44:24.909Z,20.03
2023-03-06T07:47:26.934Z,21.23
2023-03-06T07:50:29.062Z,20.73
2023-03-06T07:53:31.689Z,22.92
2023-03-06T07:56:35.193Z,20.52
2023-03-06T07:59:37.242Z,19.30
2023-03-06T08:02:40.634Z,22.98
2023-03-06T08:05:43.430Z,21.80
2023-03-06T08:08:46.995Z,18.62
2023-03-06T08:11:49.581Z,14.48
2023-03-06T08:14:51.605Z,16.53
2023-03-06T08:17:53.891Z,16.85
2023-03-06T08:21:17.288Z,18.30
2023-03-06T08:24:19.586Z,17.17
2023-03-06T08:27:21.609Z,16.58
2023-03-06T08:30:23.912Z,16.53
2023-03-06T08:33:26.785Z,13.52
2023-03-06T08:36:28.988Z,17.23
2023-03-06T08:39:31.259Z,16.98
2023-03-06T08:42:33.395Z,18.12
2023-03-06T08:45:35.697Z,18.87
2023-03-06T08:48:38.516Z,18.62
2023-03-06T08:51:41.031Z,17.45
2023-03-06T08:54:43.242Z,19.65
2023-03-06T08:57:45.792Z,28.27
2023-03-06T09:00:47.973Z,24.70
2023-03-06T09:03:51.358Z,25.90
2023-03-06T09:06:55.456Z,27.90
2023-03-06T09:09:58.481Z,18.55
2023-03-06T09:13:00.709Z,17.65
2023-03-06T09:16:02.816Z,20.07
2023-03-06T09:19:05.127Z,21.42
2023-03-06T09:22:07.306Z,21.10
2023-03-06T09:25:11.214Z,20.00
2023-03-06T09:28:13.321Z,20.15
2023-03-06T09:31:18.593Z,20.53
2023-03-06T09:34:21.025Z,23.42
2023-03-06T09:37:23.197Z,24.23
2023-03-06T09:40:39.163Z,19.15
2023-03-06T09:43:45.761Z,18.90
2023-03-06T09:47:25.379Z,17.77
2023-03-06T09:50:41.990Z,23.70
2023-03-06T09:54:14.326Z,18.67
2023-03-06T09:57:26.829Z,21.92
2023-03-06T10:00:37.654Z,25.23
2023-03-06T10:03:54.599Z,22.40
2023-03-06T10:07:01.642Z,21.58
2023-03-06T10:10:10.660Z,17.90
2023-03-06T10:13:41.077Z,21.12
2023-03-06T10:16:43.112Z,20.92
2023-03-06T10:19:47.798Z,23.90
2023-03-06T10:23:03.172Z,21.77
2023-03-06T10:26:22.784Z,22.52
2023-03-06T10:30:03.396Z,22.17
2023-03-06T10:33:50.963Z,20.67
2023-03-06T10:36:53.005Z,17.33
2023-03-06T10:40:28.435Z,17.35
2023-03-06T10:43:30.887Z,21.80
2023-03-06T10:46:45.149Z,16.80
2023-03-06T10:49:59.015Z,16.25
2023-03-06T10:53:07.213Z,15.93
2023-03-06T10:56:09.902Z,15.23
2023-03-06T10:59:11.875Z,17.70
2023-03-06T11:02:26.147Z,16.35
2023-03-06T11:05:28.207Z,13.75
2023-03-06T11:08:31.558Z,19.60
2023-03-06T11:11:37.749Z,17.98
2023-03-06T11:14:40.127Z,15.57
2023-03-06T11:17:56.202Z,14.80
2023-03-06T11:20:58.573Z,16.92
2023-03-06T11:24:19.899Z,16.07
2023-03-06T11:27:36.346Z,15.27
2023-03-06T11:30:46.395Z,19.95
2023-03-06T11:33:57.467Z,19.08
2023-03-06T11:37:07.232Z,17.65
2023-03-06T11:40:09.533Z,17.30
2023-03-06T11:43:30.372Z,19.23
2023-03-06T11:46:39.909Z,18.65
2023-03-06T11:49:46.985Z,21.37
2023-03-06T11:53:01.598Z,19.40
2023-03-06T11:56:18.614Z,20.60
2023-03-06T11:59:20.656Z,13.98
2023-03-06T12:02:33.610Z,19.40
2023-03-06T12:06:03.905Z,16.55
2023-03-06T12:09:14.685Z,17.15
2023-03-06T12:12:25.754Z,16.70
2023-03-06T12:15:46.099Z,17.48
2023-03-06T12:19:16.364Z,19.42
2023-03-06T12:22:36.336Z,24.02
2023-03-06T12:25:42.022Z,21.50
2023-03-06T12:29:09.847Z,14.97
2023-03-06T12:32:25.314Z,22.02
2023-03-06T12:35:42.466Z,19.50
2023-03-06T12:38:56.497Z,17.23
2023-03-06T12:42:11.511Z,20.20
2023-03-06T12:45:34.017Z,17.80
2023-03-06T12:48:37.538Z,20.40
2023-03-06T12:51:40.427Z,19.62
2023-03-06T12:54:42.689Z,24.35
2023-03-06T12:57:45.847Z,24.55
2023-03-06T13:01:35.934Z,23.27
2023-03-06T13:05:00.434Z,21.30
2023-03-06T13:08:17.482Z,19.48
2023-03-06T13:11:47.094Z,20.55
2023-03-06T13:14:54.637Z,19.12
2023-03-06T13:17:57.723Z,22.80
2023-03-06T13:21:00.065Z,21.00
2023-03-06T13:24:06.123Z,18.17
2023-03-06T13:27:11.362Z,28.75
2023-03-06T13:30:43.623Z,21.23
2023-03-06T13:33:45.627Z,16.10
2023-03-06T13:36:47.768Z,22.67
2023-03-06T13:40:10.197Z,19.23
2023-03-06T13:43:21.540Z,20.88
2023-03-06T13:46:26.100Z,18.27
2023-03-06T13:49:29.513Z,20.00
2023-03-06T13:52:44.628Z,19.33
2023-03-06T13:56:05.078Z,19.50
2023-03-06T13:59:56.993Z,19.35
2023-03-06T14:03:40.813Z,24.70
2023-03-06T14:07:03.226Z,22.40
2023-03-06T14:10:20.157Z,22.02
2023-03-06T14:13:45.246Z,18.95
2023-03-06T14:16:51.080Z,20.23
2023-03-06T14:19:53.901Z,22.08
2023-03-06T14:23:21.120Z,22.77
2023-03-06T14:26:26.367Z,18.80
2023-03-06T14:29:30.393Z,20.50
2023-03-06T14:32:33.008Z,18.33
2023-03-06T14:35:34.986Z,22.30
2023-03-06T14:38:43.939Z,22.30
2023-03-06T14:41:46.251Z,20.77
2023-03-06T14:44:50.154Z,18.05
2023-03-06T14:47:53.236Z,26.67
2023-03-06T14:50:58.460Z,21.50
2023-03-06T14:54:02.683Z,21.53
2023-03-06T14:57:14.562Z,22.37
2023-03-06T15:00:21.284Z,25.37
2023-03-06T15:03:33.967Z,20.90
2023-03-06T15:06:41.490Z,22.70
2023-03-06T15:09:47.877Z,20.80
2023-03-06T15:12:49.939Z,20.52
2023-03-06T15:16:04.552Z,28.00
2023-03-06T15:19:18.849Z,20.98
2023-03-06T15:22:25.566Z,23.58
2023-03-06T15:25:32.683Z,27.13
2023-03-06T15:28:38.696Z,23.62
2023-03-06T15:31:45.653Z,24.87
2023-03-06T15:34:47.956Z,27.20
2023-03-06T15:37:50.525Z,32.55
2023-03-06T15:41:01.433Z,24.67
2023-03-06T15:44:11.267Z,26.48
2023-03-06T15:47:13.436Z,25.65
2023-03-06T15:50:26.174Z,25.48
2023-03-06T15:53:28.832Z,23.45
2023-03-06T15:56:35.357Z,21.47
2023-03-06T15:59:43.203Z,24.45
2023-03-06T16:02:45.777Z,24.15
2023-03-06T16:05:48.119Z,28.55
2023-03-06T16:08:53.641Z,31.20
2023-03-06T16:11:55.817Z,26.17
2023-03-06T16:15:01.929Z,25.85
2023-03-06T16:18:05.337Z,26.05
2023-03-06T16:21:08.134Z,29.75
2023-03-06T16:24:11.977Z,30.17
2023-03-06T16:27:23.607Z,30.10
2023-03-06T16:30:29.569Z,32.22
2023-03-06T16:33:32.066Z,31.55
2023-03-06T16:36:35.974Z,26.75
2023-03-06T16:39:38.802Z,31.92
2023-03-06T16:42:41.125Z,33.10
2023-03-06T16:45:43.714Z,28.30
2023-03-06T16:48:46.923Z,33.47
2023-03-06T16:51:50.929Z,32.55
2023-03-06T16:54:53.196Z,31.60
2023-03-06T16:57:55.981Z,36.57
2023-03-06T17:00:58.288Z,30.00
2023-03-06T17:04:01.003Z,27.62
2023-03-06T17:07:03.948Z,27.40
2023-03-06T17:10:09.243Z,28.38
2023-03-06T17:13:12.324Z,30.63
2023-03-06T17:16:18.846Z,26.87
2023-03-06T17:19:21.260Z,47.33
2023-03-06T17:22:25.010Z,27.77
2023-03-06T17:25:27.367Z,32.15
2023-03-06T17:28:29.883Z,59.40
2023-03-06T17:31:32.424Z,50.90
2023-03-06T17:34:35.133Z,39.20
2023-03-06T17:37:37.892Z,33.38
2023-03-06T17:40:40.653Z,30.20
2023-03-06T17:43:43.462Z,29.67
2023-03-06T17:46:46.517Z,32.72
2023-03-06T17:49:49.399Z,28.08
2023-03-06T17:52:52.281Z,32.35
2023-03-06T17:55:56.347Z,36.78
2023-03-06T17:59:00.504Z,34.13
2023-03-06T18:02:03.780Z,31.35
2023-03-06T18:05:07.013Z,41.50
2023-03-06T18:08:10.944Z,35.47
2023-03-06T18:11:14.602Z,29.90
2023-03-06T18:14:17.233Z,28.47
2023-03-06T18:17:19.887Z,31.73
2023-03-06T18:20:23.139Z,38.90
2023-03-06T18:23:27.282Z,40.55
2023-03-06T18:26:30.602Z,38.22
2023-03-06T18:29:34.078Z,42.00
2023-03-06T18:32:36.817Z,36.22
2023-03-06T18:35:39.926Z,34.63
2023-03-06T18:38:44.541Z,33.70
2023-03-06T18:41:48.348Z,30.20
2023-03-06T18:44:51.364Z,32.00
2023-03-06T18:47:55.476Z,30.70
2023-03-06T18:51:07.721Z,38.45
2023-03-06T18:54:11.805Z,30.33
2023-03-06T18:57:14.751Z,26.45
2023-03-06T19:00:18.455Z,29.27
2023-03-06T19:03:21.800Z,25.95
2023-03-06T19:06:25.435Z,33.15
2023-03-06T19:09:29.397Z,25.50
2023-03-06T19:12:34.432Z,24.20
2023-03-06T19:15:49.431Z,27.43
2023-03-06T19:18:53.336Z,26.58
2023-03-06T19:22:00.495Z,30.20
2023-03-06T19:25:03.978Z,33.40
2023-03-06T19:28:07.343Z,31.40
2023-03-06T19:31:16.213Z,34.53
2023-03-06T19:34:19.909Z,30.73
2023-03-06T19:37:22.811Z,32.75
2023-03-06T19:40:26.193Z,28.15
2023-03-06T19:43:30.310Z,35.97
2023-03-06T19:46:35.181Z,29.60
2023-03-06T19:49:39.001Z,29.40
2023-03-06T19:52:43.350Z,21.80
2023-03-06T19:55:48.696Z,25.52
2023-03-06T19:58:54.777Z,21.37
2023-03-06T20:01:58.088Z,18.83
2023-03-06T20:05:01.315Z,29.50
2023-03-06T20:08:05.834Z,29.30
2023-03-06T20:11:16.451Z,22.67
2023-03-06T20:14:22.008Z,25.42
2023-03-06T20:17:27.195Z,27.47
2023-03-06T20:20:30.291Z,21.02
2023-03-06T20:23:34.921Z,18.73
2023-03-06T20:26:39.619Z,20.83
2023-03-06T20:29:46.328Z,29.20
2023-03-06T20:32:52.240Z,28.13
2023-03-06T20:35:55.960Z,32.92
2023-03-06T20:39:00.868Z,31.80
2023-03-06T20:42:04.866Z,30.27
2023-03-06T20:45:08.480Z,32.25
2023-03-06T20:48:11.012Z,28.50
2023-03-06T20:51:20.763Z,30.80
2023-03-06T20:54:23.875Z,26.00
2023-03-06T20:57:26.791Z,35.08
2023-03-06T21:00:29.697Z,28.25
2023-03-06T21:03:32.866Z,24.13
2023-03-06T21:06:35.504Z,28.58
2023-03-06T21:09:39.826Z,30.58
2023-03-06T21:12:42.535Z,32.65
2023-03-06T21:15:47.617Z,29.02
2023-03-06T21:18:50.302Z,29.10
2023-03-06T21:21:52.290Z,22.23
2023-03-06T21:24:54.364Z,30.75
2023-03-06T21:27:56.956Z,29.35
2023-03-06T21:31:03.010Z,25.40
2023-03-06T21:34:06.425Z,27.07
2023-03-06T21:37:08.647Z,23.05
2023-03-06T21:40:11.613Z,27.00
2023-03-06T21:43:15.829Z,29.58
2023-03-06T21:46:17.938Z,28.90
2023-03-06T21:49:23.018Z,29.30
2023-03-06T21:52:26.503Z,12.70
2023-03-06T21:55:28.867Z,28.08
2023-03-06T21:58:31.102Z,21.70
2023-03-06T22:01:33.160Z,26.00
2023-03-06T22:04:35.212Z,28.50
2023-03-06T22:07:38.432Z,28.48
2023-03-06T22:10:41.537Z,23.85
2023-03-06T22:13:44.637Z,23.08
2023-03-06T22:16:46.626Z,27.58
2023-03-06T22:19:49.137Z,22.07
2023-03-06T22:22:51.484Z,21.10
2023-03-06T22:25:53.554Z,18.08
2023-03-06T22:28:56.159Z,18.98
2023-03-06T22:31:58.388Z,20.98
2023-03-06T22:35:00.516Z,26.17
2023-03-06T22:38:04.635Z,11.15
2023-03-06T22:41:07.836Z,22.67
2023-03-06T22:44:16.610Z,22.15
2023-03-06T22:47:18.737Z,21.10
2023-03-06T22:50:20.805Z,14.63
2023-03-06T22:53:22.925Z,25.95
2023-03-06T22:56:25.158Z,25.30
2023-03-06T22:59:27.173Z,12.48
2023-03-06T23:02:34.684Z,26.90
2023-03-06T23:05:41.907Z,22.20
2023-03-06T23:08:48.269Z,27.58
2023-03-06T23:11:50.559Z,21.83
2023-03-06T23:14:52.792Z,26.42
2023-03-06T23:17:55.270Z,20.70
2023-03-06T23:20:57.843Z,28.97
2023-03-06T23:23:59.919Z,25.67
2023-03-06T23:27:02.003Z,19.23
2023-03-06T23:30:09.154Z,26.85
2023-03-06T23:33:11.402Z,23.05
2023-03-06T23:36:15.788Z,24.47
2023-03-06T23:39:17.854Z,25.08
2023-03-06T23:42:20.144Z,24.60
2023-03-06T23:45:22.312Z,24.95
2023-03-06T23:48:24.773Z,27.87
2023-03-06T23:51:27.102Z,26.33
2023-03-06T23:54:29.240Z,15.82
2023-03-06T23:57:31.472Z,20.98
